sensor_id;sensor_type;location;lat;lon;timestamp;P1;durP1;ratioP1;P2;durP2;ratioP2
23072;SDS011;34865;51.046;3.732;2023-02-18T15:31:38;10.40;;;2.35;;
23072;SDS011;34865;51.046;3.732;2023-02-18T15:42:05;11.30;;;3.55;;
23072;SDS011;34865;51.046;3.732;2023-02-18T15:44:31;8.68;;;3.88;;
23072;SDS011;34865;51.046;3.732;2023-02-18T15:47:04;9.73;;;3.77;;
23072;SDS011;34865;51.046;3.732;2023-02-18T15:49:33;8.40;;;3.83;;
23072;SDS011;34865;51.046;3.732;2023-02-18T15:52:02;13.63;;;3.63;;
23072;SDS011;34865;51.046;3.732;2023-02-18T15:58:03;10.87;;;3.90;;
23072;SDS011;34865;51.046;3.732;2023-02-18T16:00:38;14.77;;;4.27;;
23072;SDS011;34865;51.046;3.732;2023-02-18T16:05:39;9.07;;;4.30;;
23072;SDS011;34865;51.046;3.732;2023-02-18T16:08:16;10.63;;;4.80;;
23072;SDS011;34865;51.046;3.732;2023-02-18T16:13:25;9.73;;;4.00;;
23072;SDS011;34865;51.046;3.732;2023-02-18T16:15:53;22.43;;;4.83;;
23072;SDS011;67971;51.046;3.732;2023-02-18T16:21:05;17.73;;;5.90;;
23072;SDS011;67971;51.046;3.732;2023-02-18T16:23:52;9.70;;;4.60;;
23072;SDS011;67971;51.046;3.732;2023-02-18T16:29:14;17.17;;;5.50;;
23072;SDS011;67971;51.046;3.732;2023-02-18T16:31:45;12.50;;;5.20;;
23072;SDS011;67971;51.046;3.732;2023-02-18T16:34:11;21.33;;;7.93;;
23072;SDS011;67971;51.046;3.732;2023-02-18T16:36:37;18.70;;;7.80;;
23072;SDS011;67971;51.046;3.732;2023-02-18T16:39:22;13.93;;;7.47;;
23072;SDS011;67971;51.046;3.732;2023-02-18T16:41:48;15.93;;;7.60;;
23072;SDS011;67971;51.046;3.732;2023-02-18T16:44:14;23.40;;;7.43;;
23072;SDS011;67971;51.046;3.732;2023-02-18T16:46:40;18.37;;;6.33;;
23072;SDS011;67971;51.046;3.732;2023-02-18T16:49:07;20.07;;;7.43;;
23072;SDS011;67971;51.046;3.732;2023-02-18T16:51:37;21.03;;;7.67;;
23072;SDS011;67971;51.046;3.732;2023-02-18T16:54:02;17.60;;;7.23;;
23072;SDS011;67971;51.046;3.732;2023-02-18T16:56:29;21.23;;;6.97;;
23072;SDS011;67971;51.046;3.732;2023-02-18T16:58:57;19.70;;;8.73;;
23072;SDS011;67971;51.046;3.732;2023-02-18T17:01:30;19.60;;;7.40;;
23072;SDS011;67971;51.046;3.732;2023-02-18T17:03:58;20.47;;;7.77;;
23072;SDS011;67971;51.046;3.732;2023-02-18T17:06:25;19.13;;;7.17;;
23072;SDS011;67971;51.046;3.732;2023-02-18T17:08:51;19.87;;;7.17;;
23072;SDS011;67971;51.046;3.732;2023-02-18T17:11:21;23.87;;;7.70;;
23072;SDS011;67971;51.046;3.732;2023-02-18T17:13:50;18.57;;;7.33;;
23072;SDS011;67971;51.046;3.732;2023-02-18T17:16:17;20.60;;;6.93;;
23072;SDS011;67971;51.046;3.732;2023-02-18T17:18:44;20.53;;;7.70;;
23072;SDS011;67971;51.046;3.732;2023-02-18T17:24:18;21.97;;;8.90;;
23072;SDS011;67971;51.046;3.732;2023-02-18T17:26:44;19.83;;;7.40;;
23072;SDS011;67971;51.046;3.732;2023-02-18T17:29:10;18.10;;;6.77;;
23072;SDS011;67971;51.046;3.732;2023-02-18T17:31:37;17.73;;;6.77;;
23072;SDS011;67971;51.046;3.732;2023-02-18T17:34:06;19.90;;;7.47;;
23072;SDS011;67971;51.046;3.732;2023-02-18T17:36:36;19.43;;;7.40;;
23072;SDS011;67971;51.046;3.732;2023-02-18T17:39:04;21.53;;;8.10;;
23072;SDS011;67971;51.046;3.732;2023-02-18T17:41:34;22.17;;;7.80;;
23072;SDS011;67971;51.046;3.732;2023-02-18T17:43:59;20.10;;;9.50;;
23072;SDS011;67971;51.046;3.732;2023-02-18T17:46:25;20.23;;;9.63;;
23072;SDS011;67971;51.046;3.732;2023-02-18T17:48:51;21.87;;;9.13;;
23072;SDS011;67971;51.046;3.732;2023-02-18T17:51:26;19.30;;;9.33;;
23072;SDS011;67971;51.046;3.732;2023-02-18T17:53:53;21.47;;;8.90;;
23072;SDS011;67971;51.046;3.732;2023-02-18T17:56:19;21.53;;;9.63;;
23072;SDS011;67971;51.046;3.732;2023-02-18T17:58:45;19.13;;;10.47;;
23072;SDS011;67971;51.046;3.732;2023-02-18T18:01:12;20.67;;;10.53;;
23072;SDS011;67971;51.046;3.732;2023-02-18T18:03:39;17.13;;;10.13;;
23072;SDS011;67971;51.046;3.732;2023-02-18T18:06:08;20.87;;;10.30;;
23072;SDS011;67971;51.046;3.732;2023-02-18T18:08:40;19.97;;;10.40;;
23072;SDS011;67971;51.046;3.732;2023-02-18T18:11:08;19.83;;;10.20;;
23072;SDS011;67971;51.046;3.732;2023-02-18T18:13:39;22.73;;;10.47;;
23072;SDS011;67971;51.046;3.732;2023-02-18T18:16:05;20.03;;;10.80;;
23072;SDS011;67971;51.046;3.732;2023-02-18T18:18:30;23.07;;;10.60;;
23072;SDS011;67971;51.046;3.732;2023-02-18T18:20:57;22.43;;;10.60;;
23072;SDS011;67971;51.046;3.732;2023-02-18T18:23:25;20.37;;;11.03;;
23072;SDS011;67971;51.046;3.732;2023-02-18T18:25:53;24.80;;;13.43;;
23072;SDS011;67971;51.046;3.732;2023-02-18T18:28:20;26.17;;;13.33;;
23072;SDS011;67971;51.046;3.732;2023-02-18T18:30:48;21.47;;;12.53;;
23072;SDS011;67971;51.046;3.732;2023-02-18T18:35:43;21.70;;;13.83;;
23072;SDS011;67971;51.046;3.732;2023-02-18T18:38:11;22.50;;;14.53;;
23072;SDS011;67971;51.046;3.732;2023-02-18T18:40:38;24.70;;;15.33;;
23072;SDS011;67971;51.046;3.732;2023-02-18T18:43:04;26.93;;;15.70;;
23072;SDS011;67971;51.046;3.732;2023-02-18T18:45:31;20.20;;;16.93;;
23072;SDS011;67971;51.046;3.732;2023-02-18T18:47:59;25.40;;;17.40;;
23072;SDS011;67971;51.046;3.732;2023-02-18T18:50:25;26.03;;;19.97;;
23072;SDS011;67971;51.046;3.732;2023-02-18T18:52:52;26.47;;;18.77;;
23072;SDS011;67971;51.046;3.732;2023-02-18T18:55:20;28.37;;;18.53;;
23072;SDS011;67971;51.046;3.732;2023-02-18T18:57:51;34.07;;;19.37;;
23072;SDS011;67971;51.046;3.732;2023-02-18T19:00:18;26.67;;;18.80;;
23072;SDS011;67971;51.046;3.732;2023-02-18T19:02:45;24.10;;;19.60;;
23072;SDS011;67971;51.046;3.732;2023-02-18T19:05:18;29.40;;;18.37;;
23072;SDS011;67971;51.046;3.732;2023-02-18T19:07:49;26.03;;;17.23;;
23072;SDS011;67971;51.046;3.732;2023-02-18T19:10:15;24.43;;;17.13;;
23072;SDS011;67971;51.046;3.732;2023-02-18T19:12:42;20.60;;;15.83;;
23072;SDS011;67971;51.046;3.732;2023-02-18T19:15:09;20.40;;;15.83;;
23072;SDS011;67971;51.046;3.732;2023-02-18T19:17:38;22.60;;;17.00;;
23072;SDS011;67971;51.046;3.732;2023-02-18T19:20:10;20.97;;;15.83;;
23072;SDS011;67971;51.046;3.732;2023-02-18T19:22:41;22.87;;;16.80;;
23072;SDS011;67971;51.046;3.732;2023-02-18T19:25:06;20.90;;;16.67;;
23072;SDS011;67971;51.046;3.732;2023-02-18T19:27:35;20.40;;;15.27;;
23072;SDS011;67971;51.046;3.732;2023-02-18T19:30:02;16.90;;;14.43;;
23072;SDS011;67971;51.046;3.732;2023-02-18T19:32:29;18.27;;;14.07;;
23072;SDS011;67971;51.046;3.732;2023-02-18T19:34:54;18.13;;;14.10;;
23072;SDS011;67971;51.046;3.732;2023-02-18T19:37:20;16.03;;;13.27;;
23072;SDS011;67971;51.046;3.732;2023-02-18T19:39:46;16.67;;;12.80;;
23072;SDS011;67971;51.046;3.732;2023-02-18T19:42:12;17.43;;;13.70;;
23072;SDS011;67971;51.046;3.732;2023-02-18T19:44:37;19.43;;;13.30;;
23072;SDS011;67971;51.046;3.732;2023-02-18T19:47:03;16.43;;;13.30;;
23072;SDS011;67971;51.046;3.732;2023-02-18T19:49:29;14.93;;;13.07;;
23072;SDS011;67971;51.046;3.732;2023-02-18T19:51:54;21.77;;;14.60;;
23072;SDS011;67971;51.046;3.732;2023-02-18T19:54:21;20.90;;;14.83;;
23072;SDS011;67971;51.046;3.732;2023-02-18T19:56:47;18.83;;;13.93;;
23072;SDS011;67971;51.046;3.732;2023-02-18T19:59:13;17.63;;;14.33;;
23072;SDS011;67971;51.046;3.732;2023-02-18T20:01:38;20.37;;;14.83;;
23072;SDS011;67971;51.046;3.732;2023-02-18T20:04:04;19.57;;;14.27;;
23072;SDS011;67971;51.046;3.732;2023-02-18T20:06:30;19.27;;;13.57;;
23072;SDS011;67971;51.046;3.732;2023-02-18T20:08:56;22.30;;;14.73;;
23072;SDS011;67971;51.046;3.732;2023-02-18T20:11:21;23.63;;;14.40;;
23072;SDS011;67971;51.046;3.732;2023-02-18T20:13:47;21.73;;;13.20;;
23072;SDS011;67971;51.046;3.732;2023-02-18T20:16:13;19.20;;;12.80;;
23072;SDS011;67971;51.046;3.732;2023-02-18T20:18:38;21.20;;;13.63;;
23072;SDS011;67971;51.046;3.732;2023-02-18T20:21:04;21.23;;;12.90;;
23072;SDS011;67971;51.046;3.732;2023-02-18T20:23:30;18.33;;;12.10;;
23072;SDS011;67971;51.046;3.732;2023-02-18T20:25:55;22.37;;;12.70;;
23072;SDS011;67971;51.046;3.732;2023-02-18T20:28:21;17.80;;;12.93;;
23072;SDS011;67971;51.046;3.732;2023-02-18T20:30:47;26.07;;;14.60;;
23072;SDS011;67971;51.046;3.732;2023-02-18T20:33:12;20.57;;;13.50;;
23072;SDS011;67971;51.046;3.732;2023-02-18T20:35:38;18.97;;;13.73;;
23072;SDS011;67971;51.046;3.732;2023-02-18T20:38:04;21.40;;;14.00;;
23072;SDS011;67971;51.046;3.732;2023-02-18T20:40:29;18.67;;;13.77;;
23072;SDS011;67971;51.046;3.732;2023-02-18T20:42:55;27.37;;;14.50;;
23072;SDS011;67971;51.046;3.732;2023-02-18T20:45:21;25.83;;;14.63;;
23072;SDS011;67971;51.046;3.732;2023-02-18T20:47:47;24.57;;;14.50;;
23072;SDS011;67971;51.046;3.732;2023-02-18T20:50:12;24.30;;;14.40;;
23072;SDS011;67971;51.046;3.732;2023-02-18T20:52:39;20.57;;;12.90;;
23072;SDS011;67971;51.046;3.732;2023-02-18T20:55:05;28.80;;;15.20;;
23072;SDS011;67971;51.046;3.732;2023-02-18T20:57:31;24.73;;;14.87;;
23072;SDS011;67971;51.046;3.732;2023-02-18T20:59:56;23.63;;;14.10;;
23072;SDS011;67971;51.046;3.732;2023-02-18T21:02:22;28.97;;;14.40;;
23072;SDS011;67971;51.046;3.732;2023-02-18T21:04:48;25.57;;;13.77;;
23072;SDS011;67971;51.046;3.732;2023-02-18T21:07:13;21.27;;;12.63;;
23072;SDS011;67971;51.046;3.732;2023-02-18T21:09:39;23.30;;;13.53;;
23072;SDS011;67971;51.046;3.732;2023-02-18T21:12:05;21.93;;;12.37;;
23072;SDS011;67971;51.046;3.732;2023-02-18T21:14:31;20.10;;;12.03;;
23072;SDS011;67971;51.046;3.732;2023-02-18T21:16:56;18.57;;;12.30;;
23072;SDS011;67971;51.046;3.732;2023-02-18T21:19:22;19.30;;;12.80;;
23072;SDS011;67971;51.046;3.732;2023-02-18T21:21:48;16.40;;;12.43;;
23072;SDS011;67971;51.046;3.732;2023-02-18T21:24:13;19.10;;;12.70;;
23072;SDS011;67971;51.046;3.732;2023-02-18T21:26:39;18.83;;;11.97;;
23072;SDS011;67971;51.046;3.732;2023-02-18T21:29:07;17.63;;;12.33;;
23072;SDS011;67971;51.046;3.732;2023-02-18T21:31:35;18.50;;;11.63;;
23072;SDS011;67971;51.046;3.732;2023-02-18T21:34:04;20.10;;;12.50;;
23072;SDS011;67971;51.046;3.732;2023-02-18T21:36:32;23.77;;;13.03;;
23072;SDS011;67971;51.046;3.732;2023-02-18T21:39:02;23.30;;;13.30;;
23072;SDS011;67971;51.046;3.732;2023-02-18T21:41:32;21.23;;;13.57;;
23072;SDS011;67971;51.046;3.732;2023-02-18T21:43:59;22.30;;;14.37;;
23072;SDS011;67971;51.046;3.732;2023-02-18T21:46:26;22.10;;;14.53;;
23072;SDS011;67971;51.046;3.732;2023-02-18T21:48:53;23.60;;;12.97;;
23072;SDS011;67971;51.046;3.732;2023-02-18T21:54:22;23.90;;;14.33;;
23072;SDS011;67971;51.046;3.732;2023-02-18T21:56:49;34.00;;;15.60;;
23072;SDS011;67971;51.046;3.732;2023-02-18T21:59:16;27.60;;;15.93;;
23072;SDS011;67971;51.046;3.732;2023-02-18T22:01:42;28.67;;;16.30;;
23072;SDS011;67971;51.046;3.732;2023-02-18T22:04:08;35.80;;;17.40;;
23072;SDS011;67971;51.046;3.732;2023-02-18T22:06:34;28.67;;;18.80;;
23072;SDS011;67971;51.046;3.732;2023-02-18T22:09:00;34.20;;;18.80;;
23072;SDS011;67971;51.046;3.732;2023-02-18T22:11:27;33.63;;;16.97;;
23072;SDS011;67971;51.046;3.732;2023-02-18T22:13:53;28.13;;;17.53;;
23072;SDS011;67971;51.046;3.732;2023-02-18T22:16:19;30.30;;;17.87;;
23072;SDS011;67971;51.046;3.732;2023-02-18T22:18:45;35.77;;;17.47;;
23072;SDS011;67971;51.046;3.732;2023-02-18T22:21:10;31.73;;;17.53;;
23072;SDS011;67971;51.046;3.732;2023-02-18T22:23:36;29.20;;;16.80;;
23072;SDS011;67971;51.046;3.732;2023-02-18T22:26:05;30.80;;;14.83;;
23072;SDS011;67971;51.046;3.732;2023-02-18T22:28:32;28.40;;;14.17;;
23072;SDS011;67971;51.046;3.732;2023-02-18T22:30:58;24.83;;;13.67;;
23072;SDS011;67971;51.046;3.732;2023-02-18T22:33:25;24.13;;;12.93;;
23072;SDS011;67971;51.046;3.732;2023-02-18T22:35:51;23.43;;;13.60;;
23072;SDS011;67971;51.046;3.732;2023-02-18T22:38:17;21.47;;;13.73;;
23072;SDS011;67971;51.046;3.732;2023-02-18T22:40:42;24.53;;;13.67;;
23072;SDS011;67971;51.046;3.732;2023-02-18T22:43:08;22.10;;;13.27;;
23072;SDS011;67971;51.046;3.732;2023-02-18T22:45:34;33.00;;;13.97;;
23072;SDS011;67971;51.046;3.732;2023-02-18T22:48:01;28.97;;;15.90;;
23072;SDS011;67971;51.046;3.732;2023-02-18T22:50:26;31.00;;;16.77;;
23072;SDS011;67971;51.046;3.732;2023-02-18T22:52:52;26.83;;;14.53;;
23072;SDS011;67971;51.046;3.732;2023-02-18T22:55:18;23.20;;;13.73;;
23072;SDS011;67971;51.046;3.732;2023-02-18T22:57:43;30.43;;;15.17;;
23072;SDS011;67971;51.046;3.732;2023-02-18T23:00:09;22.17;;;13.73;;
23072;SDS011;67971;51.046;3.732;2023-02-18T23:02:36;23.70;;;15.83;;
23072;SDS011;67971;51.046;3.732;2023-02-18T23:05:02;27.13;;;14.70;;
23072;SDS011;67971;51.046;3.732;2023-02-18T23:07:28;25.97;;;14.57;;
23072;SDS011;67971;51.046;3.732;2023-02-18T23:09:53;25.20;;;13.30;;
23072;SDS011;67971;51.046;3.732;2023-02-18T23:12:19;21.93;;;13.20;;
23072;SDS011;67971;51.046;3.732;2023-02-18T23:14:47;21.20;;;11.63;;
23072;SDS011;67971;51.046;3.732;2023-02-18T23:17:13;24.17;;;12.77;;
23072;SDS011;67971;51.046;3.732;2023-02-18T23:22:06;17.37;;;12.00;;
23072;SDS011;67971;51.046;3.732;2023-02-18T23:24:34;24.10;;;13.87;;
23072;SDS011;67971;51.046;3.732;2023-02-18T23:27:01;26.50;;;14.37;;
23072;SDS011;67971;51.046;3.732;2023-02-18T23:29:27;20.87;;;12.83;;
23072;SDS011;67971;51.046;3.732;2023-02-18T23:31:53;25.90;;;15.00;;
23072;SDS011;67971;51.046;3.732;2023-02-18T23:34:19;28.73;;;15.70;;
23072;SDS011;67971;51.046;3.732;2023-02-18T23:36:44;34.33;;;15.90;;
23072;SDS011;67971;51.046;3.732;2023-02-18T23:39:11;27.40;;;16.57;;
23072;SDS011;67971;51.046;3.732;2023-02-18T23:41:43;33.43;;;17.17;;
23072;SDS011;67971;51.046;3.732;2023-02-18T23:44:11;31.10;;;16.77;;
23072;SDS011;67971;51.046;3.732;2023-02-18T23:46:38;32.70;;;19.13;;
23072;SDS011;67971;51.046;3.732;2023-02-18T23:49:04;32.20;;;18.20;;
23072;SDS011;67971;51.046;3.732;2023-02-18T23:51:30;30.87;;;18.30;;
23072;SDS011;67971;51.046;3.732;2023-02-18T23:53:56;38.07;;;18.77;;
23072;SDS011;67971;51.046;3.732;2023-02-18T23:56:23;34.33;;;18.70;;
23072;SDS011;67971;51.046;3.732;2023-02-18T23:58:51;29.23;;;18.37;;
